createdAt,value
2018-02-15T00:00:29.522Z,1.12
2018-02-15T00:01:38.346Z,1.14
2018-02-15T00:02:47.172Z,1.14
2018-02-15T00:03:56.297Z,1.06
2018-02-15T00:05:05.122Z,1.18
2018-02-15T00:06:14.222Z,1.23
2018-02-15T00:07:23.058Z,1.14
2018-02-15T00:08:31.871Z,1.18
2018-02-15T00:09:40.751Z,1.18
2018-02-15T00:10:49.912Z,1.18
2018-02-15T00:11:58.738Z,1.22
2018-02-15T00:13:07.562Z,1.14
2018-02-15T00:14:16.388Z,1.12
2018-02-15T00:15:25.218Z,1.15
2018-02-15T00:16:34.041Z,1.11
2018-02-15T00:17:42.864Z,1.18
2018-02-15T00:18:51.689Z,1.14
2018-02-15T00:20:00.514Z,1.14
2018-02-15T00:21:09.338Z,1.14
2018-02-15T00:22:18.163Z,1.08
2018-02-15T00:23:26.990Z,1.18
2018-02-15T00:24:35.812Z,1.09
2018-02-15T00:25:44.637Z,1.16
2018-02-15T00:26:53.712Z,1.26
2018-02-15T00:28:02.534Z,1.24
2018-02-15T00:29:11.361Z,1.2
2018-02-15T00:30:20.185Z,1.32
2018-02-15T00:31:29.011Z,1.24
2018-02-15T00:32:37.835Z,1.22
2018-02-15T00:33:46.659Z,1.27
2018-02-15T00:34:55.481Z,1.27
2018-02-15T00:36:04.306Z,1.3
2018-02-15T00:37:13.136Z,1.15
2018-02-15T00:38:22.254Z,1.26
2018-02-15T00:39:31.081Z,1.18
2018-02-15T00:40:39.905Z,1.18
2018-02-15T00:41:49.009Z,1.16
2018-02-15T00:42:57.834Z,1.26
2018-02-15T00:44:06.659Z,1.14
2018-02-15T00:45:15.486Z,1.16
2018-02-15T00:46:24.311Z,1.22
2018-02-15T00:47:33.137Z,1.27
2018-02-15T00:48:41.962Z,1.26
2018-02-15T00:49:50.837Z,1.27
2018-02-15T00:50:59.661Z,1.16
2018-02-15T00:52:08.486Z,1.2
2018-02-15T00:53:17.311Z,1.26
2018-02-15T00:54:26.138Z,1.29
2018-02-15T00:55:35.061Z,1.34
2018-02-15T00:56:43.887Z,1.24
2018-02-15T00:57:52.711Z,1.16
2018-02-15T00:59:01.538Z,1.33
2018-02-15T01:00:10.364Z,1.26
2018-02-15T01:01:19.186Z,1.22
2018-02-15T01:02:28.010Z,1.26
2018-02-15T01:03:36.838Z,1.18
2018-02-15T01:04:45.663Z,1.3
2018-02-15T01:05:54.488Z,1.16
2018-02-15T01:07:03.589Z,1.18
2018-02-15T01:08:12.416Z,1.16
2018-02-15T01:09:21.239Z,1.26
2018-02-15T01:10:30.067Z,1.16
2018-02-15T01:11:38.897Z,1.2
2018-02-15T01:12:47.871Z,1.27
2018-02-15T01:13:56.693Z,1.23
2018-02-15T01:15:05.517Z,1.27
2018-02-15T01:16:14.341Z,1.18
2018-02-15T01:17:23.169Z,1.22
2018-02-15T01:18:32.527Z,1.3
2018-02-15T01:19:41.402Z,1.23
2018-02-15T01:20:50.228Z,1.16
2018-02-15T01:21:59.051Z,1.16
2018-02-15T01:23:07.876Z,1.22
2018-02-15T01:24:16.850Z,1.23
2018-02-15T01:25:25.676Z,1.24
2018-02-15T01:26:34.782Z,1.15
2018-02-15T01:27:43.608Z,1.2
2018-02-15T01:28:52.433Z,1.2
2018-02-15T01:30:01.258Z,1.24
2018-02-15T01:31:10.357Z,1.27
2018-02-15T01:32:19.185Z,1.2
2018-02-15T01:33:28.008Z,1.22
2018-02-15T01:34:36.833Z,1.2
2018-02-15T01:35:45.657Z,1.22
2018-02-15T01:36:54.482Z,1.16
2018-02-15T01:38:03.310Z,1.14
2018-02-15T01:39:12.408Z,1.23
2018-02-15T01:40:21.232Z,1.15
2018-02-15T01:41:30.208Z,1.2
2018-02-15T01:42:39.134Z,1.18
2018-02-15T01:43:47.958Z,1.2
2018-02-15T01:44:56.784Z,1.18
2018-02-15T01:46:05.608Z,1.18
2018-02-15T01:47:14.737Z,1.12
2018-02-15T01:48:23.834Z,1.12
2018-02-15T01:49:32.708Z,1.14
2018-02-15T01:50:41.535Z,1.14
2018-02-15T01:51:50.359Z,1.12
2018-02-15T01:52:59.334Z,1.08
2018-02-15T01:54:08.158Z,1.16
2018-02-15T01:55:16.982Z,1.16
2018-02-15T01:56:26.083Z,1.2
2018-02-15T01:57:35.182Z,1.14
2018-02-15T01:58:44.156Z,1.2
2018-02-15T01:59:52.981Z,1.26
2018-02-15T02:01:01.807Z,1.23
2018-02-15T02:02:10.632Z,1.29
2018-02-15T02:03:19.463Z,1.29
2018-02-15T02:04:28.432Z,1.23
2018-02-15T02:05:37.534Z,1.32
2018-02-15T02:06:46.361Z,1.2
2018-02-15T02:07:55.186Z,1.2
2018-02-15T02:09:04.014Z,1.15
2018-02-15T02:10:12.991Z,1.26
2018-02-15T02:11:21.814Z,1.27
2018-02-15T02:12:30.639Z,1.24
2018-02-15T02:13:39.467Z,1.18
2018-02-15T02:14:48.290Z,1.22
2018-02-15T02:15:57.516Z,1.29
2018-02-15T02:17:06.343Z,1.26
2018-02-15T02:18:15.170Z,1.23
2018-02-15T02:19:23.993Z,1.2
2018-02-15T02:20:32.818Z,1.26
2018-02-15T02:21:41.643Z,1.24
2018-02-15T02:22:50.469Z,1.26
2018-02-15T02:23:59.295Z,1.24
2018-02-15T02:25:08.120Z,1.26
2018-02-15T02:26:16.946Z,1.26
2018-02-15T02:27:26.021Z,1.26
2018-02-15T02:28:34.850Z,1.24
2018-02-15T02:29:43.677Z,1.26
2018-02-15T02:30:52.783Z,1.22
2018-02-15T02:32:01.602Z,1.27
2018-02-15T02:33:10.535Z,1.26
2018-02-15T02:34:19.352Z,1.26
2018-02-15T02:35:28.184Z,1.33
2018-02-15T02:36:37.281Z,1.29
2018-02-15T02:37:46.108Z,1.29
2018-02-15T02:38:54.937Z,1.3
2018-02-15T02:40:03.764Z,1.33
2018-02-15T02:41:12.866Z,1.24
2018-02-15T02:42:21.699Z,1.29
2018-02-15T02:43:30.526Z,1.3
2018-02-15T02:44:39.357Z,1.27
2018-02-15T02:45:48.181Z,1.29
2018-02-15T02:46:57.004Z,1.27
2018-02-15T02:48:05.829Z,1.3
2018-02-15T02:49:14.654Z,1.37
2018-02-15T02:50:23.860Z,1.42
2018-02-15T02:51:32.688Z,1.47
2018-02-15T02:52:41.519Z,1.4
2018-02-15T02:53:50.344Z,1.41
2018-02-15T02:54:59.169Z,1.42
2018-02-15T02:56:07.994Z,1.41
2018-02-15T02:57:16.820Z,1.3
2018-02-15T02:58:25.645Z,1.34
2018-02-15T02:59:34.471Z,1.33
2018-02-15T03:00:43.298Z,1.4
2018-02-15T03:01:52.225Z,1.37
2018-02-15T03:03:01.324Z,1.32
2018-02-15T03:04:10.148Z,1.33
2018-02-15T03:05:18.974Z,1.27
2018-02-15T03:06:27.798Z,1.23
2018-02-15T03:07:36.721Z,1.26
2018-02-15T03:08:45.547Z,1.27
2018-02-15T03:09:54.373Z,1.3
2018-02-15T03:11:03.198Z,1.27
2018-02-15T03:12:12.025Z,1.37
2018-02-15T03:13:20.851Z,1.37
2018-02-15T03:14:29.678Z,1.36
2018-02-15T03:15:38.502Z,1.42
2018-02-15T03:16:47.330Z,1.37
2018-02-15T03:17:56.152Z,1.41
2018-02-15T03:19:05.275Z,1.37
2018-02-15T03:20:14.099Z,1.37
2018-02-15T03:21:22.923Z,1.4
2018-02-15T03:22:31.750Z,1.3
2018-02-15T03:23:40.576Z,1.29
2018-02-15T03:24:49.400Z,1.27
2018-02-15T03:25:58.775Z,1.3
2018-02-15T03:27:07.600Z,1.41
2018-02-15T03:28:16.426Z,1.44
2018-02-15T03:29:25.253Z,1.29
2018-02-15T03:30:34.228Z,1.37
2018-02-15T03:31:43.065Z,1.24
2018-02-15T03:32:51.879Z,1.32
2018-02-15T03:34:00.701Z,1.34
2018-02-15T03:35:09.533Z,1.44
2018-02-15T03:36:18.657Z,1.47
2018-02-15T03:37:27.484Z,1.41
2018-02-15T03:38:36.308Z,1.41
2018-02-15T03:39:45.134Z,1.37
2018-02-15T03:40:53.959Z,1.42
2018-02-15T03:42:02.785Z,1.4
2018-02-15T03:43:11.610Z,1.4
2018-02-15T03:44:20.437Z,1.42
2018-02-15T03:45:29.259Z,1.41
2018-02-15T03:46:38.084Z,1.41
2018-02-15T03:47:46.907Z,1.27
2018-02-15T03:48:55.734Z,1.37
2018-02-15T03:50:04.558Z,1.34
2018-02-15T03:51:13.386Z,1.34
2018-02-15T03:52:22.213Z,1.37
2018-02-15T03:53:31.089Z,1.42
2018-02-15T03:54:39.964Z,1.4
2018-02-15T03:55:49.062Z,1.42
2018-02-15T03:56:57.888Z,1.34
2018-02-15T03:58:06.986Z,1.4
2018-02-15T03:59:16.010Z,1.41
2018-02-15T04:00:24.840Z,1.4
2018-02-15T04:01:33.667Z,1.37
2018-02-15T04:02:42.491Z,1.36
2018-02-15T04:03:51.318Z,1.34
2018-02-15T04:05:00.444Z,1.4
2018-02-15T04:06:09.271Z,1.36
2018-02-15T04:07:18.096Z,1.33
2018-02-15T04:08:26.923Z,1.32
2018-02-15T04:09:35.745Z,1.3
2018-02-15T04:10:44.621Z,1.41
2018-02-15T04:11:53.446Z,1.4
2018-02-15T04:13:02.270Z,1.41
2018-02-15T04:14:11.096Z,1.52
2018-02-15T04:15:19.920Z,1.44
2018-02-15T04:16:28.746Z,1.48
2018-02-15T04:17:37.576Z,1.47
2018-02-15T04:18:46.394Z,1.47
2018-02-15T04:19:55.222Z,1.41
2018-02-15T04:21:04.047Z,1.48
2018-02-15T04:22:12.877Z,1.44
2018-02-15T04:23:21.700Z,1.47
2018-02-15T04:24:30.526Z,1.47
2018-02-15T04:25:39.350Z,1.5
2018-02-15T04:26:48.173Z,1.42
2018-02-15T04:27:56.997Z,1.42
2018-02-15T04:29:05.824Z,1.37
2018-02-15T04:30:14.648Z,1.4
2018-02-15T04:31:23.474Z,1.47
2018-02-15T04:32:32.299Z,1.42
2018-02-15T04:33:41.127Z,1.44
2018-02-15T04:34:49.953Z,1.45
2018-02-15T04:35:58.779Z,1.47
2018-02-15T04:37:07.606Z,1.41
2018-02-15T04:38:16.434Z,1.51
2018-02-15T04:39:25.410Z,1.47
2018-02-15T04:40:34.233Z,1.42
2018-02-15T04:41:43.059Z,1.47
2018-02-15T04:42:51.883Z,1.47
2018-02-15T04:44:00.707Z,1.48
2018-02-15T04:45:09.824Z,1.47
2018-02-15T04:46:18.650Z,1.51
2018-02-15T04:47:27.475Z,1.45
2018-02-15T04:48:36.301Z,1.52
2018-02-15T04:49:45.126Z,1.52
2018-02-15T04:50:53.950Z,1.47
2018-02-15T04:52:03.053Z,1.47
2018-02-15T04:53:11.877Z,1.42
2018-02-15T04:54:20.704Z,1.52
2018-02-15T04:55:29.530Z,1.54
2018-02-15T04:56:38.505Z,1.55
2018-02-15T04:57:47.601Z,1.5
2018-02-15T04:58:56.425Z,1.54
2018-02-15T05:00:05.525Z,1.55
2018-02-15T05:01:14.623Z,1.62
2018-02-15T05:02:23.447Z,1.62
2018-02-15T05:03:32.272Z,1.52
2018-02-15T05:04:41.097Z,1.47
2018-02-15T05:05:49.922Z,1.69
2018-02-15T05:06:58.746Z,1.6
2018-02-15T05:08:07.573Z,1.6
2018-02-15T05:09:16.400Z,1.59
2018-02-15T05:10:25.502Z,1.59
2018-02-15T05:11:34.379Z,1.65
2018-02-15T05:12:43.204Z,1.59
2018-02-15T05:13:52.080Z,1.62
2018-02-15T05:15:00.906Z,1.6
2018-02-15T05:16:10.007Z,1.55
2018-02-15T05:17:18.832Z,1.59
2018-02-15T05:18:27.659Z,1.6
2018-02-15T05:19:36.487Z,1.68
2018-02-15T05:20:45.313Z,1.65
2018-02-15T05:21:54.138Z,1.76
2018-02-15T05:23:02.965Z,1.7
2018-02-15T05:24:11.788Z,1.68
2018-02-15T05:25:20.712Z,1.77
2018-02-15T05:26:29.537Z,1.76
2018-02-15T05:27:38.364Z,1.73
2018-02-15T05:28:47.188Z,1.72
2018-02-15T05:29:56.013Z,1.8
2018-02-15T05:31:04.939Z,1.72
2018-02-15T05:32:13.763Z,1.81
2018-02-15T05:33:22.588Z,1.77
2018-02-15T05:34:31.416Z,1.69
2018-02-15T05:35:40.238Z,1.77
2018-02-15T05:36:49.065Z,1.77
2018-02-15T05:37:57.890Z,1.81
2018-02-15T05:39:06.719Z,1.72
2018-02-15T05:40:15.825Z,1.73
2018-02-15T05:41:24.926Z,1.73
2018-02-15T05:42:34.028Z,1.76
2018-02-15T05:43:43.130Z,1.79
2018-02-15T05:44:51.959Z,1.76
2018-02-15T05:46:00.786Z,1.8
2018-02-15T05:47:09.611Z,1.91
2018-02-15T05:48:18.836Z,1.81
2018-02-15T05:49:27.662Z,1.8
2018-02-15T05:50:36.486Z,1.87
2018-02-15T05:51:45.312Z,1.84
2018-02-15T05:52:54.135Z,1.79
2018-02-15T05:54:03.262Z,1.88
2018-02-15T05:55:12.089Z,1.76
2018-02-15T05:56:20.914Z,1.83
2018-02-15T05:57:29.739Z,1.79
2018-02-15T05:58:38.852Z,1.86
2018-02-15T05:59:47.681Z,1.84
2018-02-15T06:00:56.779Z,1.8
2018-02-15T06:02:05.605Z,1.91
2018-02-15T06:03:14.431Z,1.83
2018-02-15T06:04:23.257Z,1.86
2018-02-15T06:05:32.233Z,1.84
2018-02-15T06:06:41.058Z,1.8
2018-02-15T06:07:49.886Z,1.81
2018-02-15T06:08:58.711Z,1.9
2018-02-15T06:10:07.537Z,1.86
2018-02-15T06:11:16.364Z,1.87
2018-02-15T06:12:25.187Z,1.9
2018-02-15T06:13:34.012Z,1.88
2018-02-15T06:14:42.837Z,2
2018-02-15T06:15:51.664Z,1.95
2018-02-15T06:17:00.545Z,2.03
2018-02-15T06:18:09.643Z,1.87
2018-02-15T06:19:18.477Z,1.93
2018-02-15T06:20:27.306Z,1.87
2018-02-15T06:21:36.133Z,1.9
2018-02-15T06:22:45.110Z,1.91
2018-02-15T06:23:53.939Z,1.9
2018-02-15T06:25:03.047Z,2.02
2018-02-15T06:26:11.876Z,1.83
2018-02-15T06:27:20.710Z,1.84
2018-02-15T06:28:29.685Z,1.76
2018-02-15T06:29:38.511Z,1.87
2018-02-15T06:30:47.336Z,1.87
2018-02-15T06:31:56.438Z,1.81
2018-02-15T06:33:05.267Z,1.81
2018-02-15T06:34:14.242Z,1.84
2018-02-15T06:35:23.066Z,1.93
2018-02-15T06:36:31.891Z,1.91
2018-02-15T06:37:40.719Z,1.88
2018-02-15T06:38:49.544Z,1.91
2018-02-15T06:39:58.526Z,1.91
2018-02-15T06:41:07.627Z,1.99
2018-02-15T06:42:16.448Z,1.87
2018-02-15T06:43:25.275Z,1.84
2018-02-15T06:44:34.100Z,1.81
2018-02-15T06:45:42.976Z,1.95
2018-02-15T06:46:51.801Z,1.93
2018-02-15T06:48:00.627Z,1.93
2018-02-15T06:49:09.728Z,1.88
2018-02-15T06:50:18.834Z,1.93
2018-02-15T06:51:27.817Z,1.77
2018-02-15T06:52:36.642Z,1.86
2018-02-15T06:53:45.466Z,1.83
2018-02-15T06:54:54.292Z,1.79
2018-02-15T06:56:03.116Z,1.8
2018-02-15T06:57:12.092Z,1.88
2018-02-15T06:58:20.917Z,1.9
2018-02-15T06:59:29.745Z,1.86
2018-02-15T07:00:38.570Z,1.9
2018-02-15T07:01:47.398Z,1.8
2018-02-15T07:02:56.320Z,1.95
2018-02-15T07:04:05.420Z,1.87
2018-02-15T07:05:14.243Z,1.93
2018-02-15T07:06:23.068Z,1.93
2018-02-15T07:07:31.896Z,1.9
2018-02-15T07:08:41.150Z,2.03
2018-02-15T07:09:49.974Z,2.06
2018-02-15T07:10:58.797Z,1.9
2018-02-15T07:12:07.623Z,1.95
2018-02-15T07:13:16.448Z,2.03
2018-02-15T07:14:25.276Z,1.95
2018-02-15T07:15:34.133Z,2.03
2018-02-15T07:16:43.201Z,2.05
2018-02-15T07:17:52.028Z,2.05
2018-02-15T07:19:00.853Z,1.99
2018-02-15T07:20:09.727Z,1.98
2018-02-15T07:21:18.554Z,1.98
2018-02-15T07:22:27.380Z,2.05
2018-02-15T07:23:36.204Z,1.98
2018-02-15T07:24:45.031Z,1.9
2018-02-15T07:25:53.857Z,2.02
2018-02-15T07:27:02.685Z,1.99
2018-02-15T07:28:11.512Z,2.06
2018-02-15T07:29:20.338Z,2
2018-02-15T07:30:29.164Z,2.12
2018-02-15T07:31:38.292Z,2.07
2018-02-15T07:32:47.119Z,2.12
2018-02-15T07:33:55.944Z,2.07
2018-02-15T07:35:04.772Z,2.12
2018-02-15T07:36:13.878Z,2.09
2018-02-15T07:37:22.801Z,2.1
2018-02-15T07:38:31.635Z,2.12
2018-02-15T07:39:40.464Z,2.1
2018-02-15T07:40:49.290Z,2.14
2018-02-15T07:41:58.116Z,2.17
2018-02-15T07:43:06.990Z,2.16
2018-02-15T07:44:15.818Z,2.12
2018-02-15T07:45:24.651Z,2.14
2018-02-15T07:46:33.750Z,2.2
2018-02-15T07:47:42.576Z,2.24
2018-02-15T07:48:51.402Z,2.2
2018-02-15T07:50:00.229Z,2.21
2018-02-15T07:51:09.329Z,2.25
2018-02-15T07:52:18.159Z,2.2
2018-02-15T07:53:26.984Z,2.25
2018-02-15T07:54:35.809Z,2.31
2018-02-15T07:55:44.635Z,2.28
2018-02-15T07:56:53.461Z,2.25
2018-02-15T07:58:02.288Z,2.28
2018-02-15T07:59:11.113Z,2.3
2018-02-15T08:00:19.991Z,2.34
2018-02-15T08:01:28.818Z,2.38
2018-02-15T08:02:37.643Z,2.41
2018-02-15T08:03:46.471Z,2.43
2018-02-15T08:04:55.296Z,2.39
2018-02-15T08:06:04.230Z,2.48
2018-02-15T08:07:13.059Z,2.43
2018-02-15T08:08:22.159Z,2.48
2018-02-15T08:09:30.985Z,2.49
2018-02-15T08:10:39.814Z,2.52
2018-02-15T08:11:48.737Z,2.53
2018-02-15T08:12:57.564Z,2.48
2018-02-15T08:14:06.391Z,2.56
2018-02-15T08:15:15.216Z,2.57
2018-02-15T08:16:24.041Z,2.64
2018-02-15T08:17:32.919Z,2.6
2018-02-15T08:18:41.750Z,2.66
2018-02-15T08:19:50.848Z,2.59
2018-02-15T08:20:59.676Z,2.63
2018-02-15T08:22:08.504Z,2.66
2018-02-15T08:23:17.539Z,2.63
2018-02-15T08:24:26.358Z,2.67
2018-02-15T08:25:35.185Z,2.64
2018-02-15T08:26:44.012Z,2.64
2018-02-15T08:27:52.837Z,2.69
2018-02-15T08:29:02.089Z,2.66
2018-02-15T08:30:10.916Z,2.64
2018-02-15T08:31:19.744Z,2.77
2018-02-15T08:32:28.573Z,2.64
2018-02-15T08:33:37.675Z,2.74
2018-02-15T08:34:46.550Z,2.72
2018-02-15T08:35:55.655Z,2.71
2018-02-15T08:37:04.482Z,2.66
2018-02-15T08:38:13.311Z,2.69
2018-02-15T08:39:22.138Z,2.71
2018-02-15T08:40:31.016Z,2.77
2018-02-15T08:41:39.843Z,2.77
2018-02-15T08:42:48.670Z,2.78
2018-02-15T08:43:57.499Z,2.79
2018-02-15T08:45:06.324Z,2.74
2018-02-15T08:46:15.301Z,2.75
2018-02-15T08:47:24.131Z,2.9
2018-02-15T08:48:32.959Z,2.93
2018-02-15T08:49:41.785Z,2.87
2018-02-15T08:50:50.612Z,2.92
2018-02-15T08:51:59.489Z,2.92
2018-02-15T08:53:08.317Z,3.06
2018-02-15T08:54:17.145Z,2.96
2018-02-15T08:55:25.970Z,2.95
2018-02-15T08:56:35.074Z,2.93
2018-02-15T08:57:43.999Z,2.96
2018-02-15T08:58:53.103Z,3.03
2018-02-15T09:00:01.931Z,3.1
2018-02-15T09:01:10.759Z,2.99
2018-02-15T09:02:19.585Z,3.06
2018-02-15T09:03:28.463Z,3.15
2018-02-15T09:04:37.290Z,3.03
2018-02-15T09:05:46.117Z,3.11
2018-02-15T09:06:54.949Z,3.1
2018-02-15T09:08:03.778Z,3.15
2018-02-15T09:09:12.907Z,3.1
2018-02-15T09:10:21.736Z,3.08
2018-02-15T09:11:30.566Z,3.06
2018-02-15T09:12:39.393Z,3.08
2018-02-15T09:13:48.222Z,2.97
2018-02-15T09:14:57.201Z,3.11
2018-02-15T09:16:06.027Z,3.08
2018-02-15T09:17:14.860Z,3
2018-02-15T09:18:23.688Z,2.96
2018-02-15T09:19:32.516Z,2.92
2018-02-15T09:20:41.493Z,3.02
2018-02-15T09:21:50.600Z,2.93
2018-02-15T09:22:59.431Z,2.9
2018-02-15T09:24:08.260Z,2.92
2018-02-15T09:25:17.087Z,2.9
2018-02-15T09:26:26.068Z,2.75
2018-02-15T09:27:35.171Z,2.69
2018-02-15T09:28:44.001Z,2.61
2018-02-15T09:29:52.826Z,2.43
2018-02-15T09:31:01.654Z,2.53
2018-02-15T09:32:10.582Z,2.42
2018-02-15T09:33:19.416Z,2.54
2018-02-15T09:34:28.517Z,2.49
2018-02-15T09:35:37.345Z,2.49
2018-02-15T09:36:46.174Z,2.43
2018-02-15T09:37:55.052Z,2.45
2018-02-15T09:39:03.881Z,2.42
2018-02-15T09:40:12.709Z,2.49
2018-02-15T09:41:21.540Z,2.41
2018-02-15T09:42:30.367Z,2.43
2018-02-15T09:43:39.297Z,2.48
2018-02-15T09:44:48.125Z,2.35
2018-02-15T09:45:56.952Z,2.41
2018-02-15T09:47:05.805Z,2.27
2018-02-15T09:48:14.606Z,2.1
2018-02-15T09:49:23.732Z,2.1
2018-02-15T09:50:32.559Z,2.17
2018-02-15T09:51:41.386Z,2.06
2018-02-15T09:52:50.215Z,2.16
2018-02-15T09:53:59.041Z,2.09
2018-02-15T09:55:08.017Z,2.1
2018-02-15T09:56:16.843Z,2.16
2018-02-15T09:57:25.959Z,2
2018-02-15T09:58:34.786Z,2.07
2018-02-15T09:59:43.621Z,2.1
2018-02-15T10:00:52.588Z,2
2018-02-15T10:02:01.418Z,2.03
2018-02-15T10:03:10.245Z,2
2018-02-15T10:04:19.354Z,1.91
2018-02-15T10:05:28.183Z,2.09
2018-02-15T10:06:37.008Z,1.98
2018-02-15T10:07:45.837Z,2.14
2018-02-15T10:08:54.664Z,2.1
2018-02-15T10:10:03.489Z,2.12
2018-02-15T10:11:12.319Z,2.1
2018-02-15T10:12:21.199Z,2.06
2018-02-15T10:13:30.024Z,2.07
2018-02-15T10:14:39.124Z,1.95
2018-02-15T10:15:47.951Z,2.03
2018-02-15T10:16:56.776Z,1.95
2018-02-15T10:18:05.605Z,1.91
2018-02-15T10:19:14.429Z,1.84
2018-02-15T10:20:23.255Z,1.99
2018-02-15T10:21:32.081Z,2
2018-02-15T10:22:40.910Z,2.03
2018-02-15T10:23:49.740Z,1.99
2018-02-15T10:24:58.566Z,1.93
2018-02-15T10:26:07.675Z,2.07
2018-02-15T10:27:16.499Z,1.99
2018-02-15T10:28:25.326Z,1.95
2018-02-15T10:29:34.202Z,2
2018-02-15T10:30:43.310Z,2.03
2018-02-15T10:31:52.137Z,2.12
2018-02-15T10:33:00.966Z,2.05
2018-02-15T10:34:09.796Z,1.95
2018-02-15T10:35:18.894Z,2.06
2018-02-15T10:36:27.721Z,2
2018-02-15T10:37:36.549Z,2.03
2018-02-15T10:38:45.376Z,2.03
2018-02-15T10:39:54.203Z,2
2018-02-15T10:41:03.131Z,1.99
2018-02-15T10:42:11.961Z,2
2018-02-15T10:43:20.788Z,1.95
2018-02-15T10:44:29.894Z,1.8
2018-02-15T10:45:38.720Z,1.79
2018-02-15T10:46:47.846Z,1.81
2018-02-15T10:47:56.673Z,1.81
2018-02-15T10:49:05.499Z,1.73
2018-02-15T10:50:14.326Z,1.76
2018-02-15T10:51:23.154Z,1.79
2018-02-15T10:52:31.977Z,1.76
2018-02-15T10:53:40.806Z,1.8
2018-02-15T10:54:49.642Z,1.7
2018-02-15T10:55:58.477Z,1.69
2018-02-15T10:57:07.303Z,1.8
2018-02-15T10:58:16.732Z,1.8
2018-02-15T10:59:25.557Z,1.81
2018-02-15T11:00:34.407Z,1.79
2018-02-15T11:01:43.240Z,1.73
2018-02-15T11:02:52.369Z,1.73
2018-02-15T11:04:01.910Z,1.77
2018-02-15T11:05:10.736Z,1.76
2018-02-15T11:06:19.923Z,1.84
2018-02-15T11:07:29.326Z,1.81
2018-02-15T11:08:40.561Z,1.88
2018-02-15T11:09:50.020Z,1.86
2018-02-15T11:10:59.892Z,1.93
2018-02-15T11:12:08.745Z,1.79
2018-02-15T11:13:17.983Z,1.84
2018-02-15T11:14:27.379Z,1.81
2018-02-15T11:15:36.595Z,1.87
2018-02-15T11:16:45.496Z,1.98
2018-02-15T11:17:54.826Z,1.98
2018-02-15T11:19:05.050Z,1.99
2018-02-15T11:20:15.641Z,1.88
2018-02-15T11:21:24.544Z,1.83
2018-02-15T11:22:33.391Z,1.88
2018-02-15T11:23:42.300Z,1.95
2018-02-15T11:24:52.280Z,1.84
2018-02-15T11:26:01.126Z,1.83
2018-02-15T11:27:10.460Z,1.81
2018-02-15T11:28:20.517Z,1.88
2018-02-15T11:29:29.836Z,1.9
2018-02-15T11:30:38.743Z,1.95
2018-02-15T11:31:47.600Z,1.87
2018-02-15T11:32:56.846Z,1.86
2018-02-15T11:34:05.954Z,1.87
2018-02-15T11:35:15.229Z,1.81
2018-02-15T11:36:24.067Z,1.79
2018-02-15T11:37:32.971Z,1.79
2018-02-15T11:38:41.898Z,1.86
2018-02-15T11:39:50.879Z,1.81
2018-02-15T11:40:59.847Z,1.98
2018-02-15T11:42:09.010Z,2.02
2018-02-15T11:43:18.428Z,2.06
2018-02-15T11:44:27.609Z,1.93
2018-02-15T11:45:36.804Z,1.91
2018-02-15T11:46:46.455Z,1.84
2018-02-15T11:47:55.783Z,1.87
2018-02-15T11:49:04.924Z,1.81
2018-02-15T11:50:13.972Z,2.05
2018-02-15T11:51:22.858Z,1.86
2018-02-15T11:52:32.826Z,1.86
2018-02-15T11:53:42.077Z,1.95
2018-02-15T11:54:52.131Z,1.98
2018-02-15T11:56:01.269Z,2.02
2018-02-15T11:57:10.314Z,1.91
2018-02-15T11:58:19.153Z,2.03
2018-02-15T11:59:29.812Z,2.02
2018-02-15T12:00:39.302Z,2
2018-02-15T12:01:48.842Z,2.07
2018-02-15T12:02:57.692Z,2.14
2018-02-15T12:04:06.541Z,2.1
2018-02-15T12:05:16.170Z,2.12
2018-02-15T12:06:25.276Z,2.34
2018-02-15T12:07:35.278Z,2.1
2018-02-15T12:08:44.836Z,2.28
2018-02-15T12:09:55.442Z,2.07
2018-02-15T12:11:05.739Z,2.07
2018-02-15T12:12:15.347Z,2.2
2018-02-15T12:13:24.549Z,2.23
2018-02-15T12:14:33.436Z,2.21
2018-02-15T12:15:42.471Z,2.14
2018-02-15T12:16:51.305Z,2.14
2018-02-15T12:18:01.639Z,2.06
2018-02-15T12:19:10.929Z,2.18
2018-02-15T12:20:20.970Z,2.21
2018-02-15T12:21:29.886Z,2.09
2018-02-15T12:22:38.895Z,2.21
2018-02-15T12:23:48.889Z,2.16
2018-02-15T12:24:58.133Z,2.12
2018-02-15T12:26:07.006Z,2.14
2018-02-15T12:27:16.914Z,2.14
2018-02-15T12:28:26.235Z,2.1
2018-02-15T12:29:35.078Z,2.05
2018-02-15T12:30:44.172Z,2.16
2018-02-15T12:31:53.104Z,2.2
2018-02-15T12:33:02.553Z,2.17
2018-02-15T12:34:11.903Z,2.07
2018-02-15T12:35:20.894Z,2.16
2018-02-15T12:36:30.251Z,2.18
2018-02-15T12:37:39.962Z,2.18
2018-02-15T12:38:49.202Z,2.12
2018-02-15T12:39:58.403Z,2.21
2018-02-15T12:41:07.505Z,2.21
2018-02-15T12:42:16.718Z,2.28
2018-02-15T12:43:26.020Z,2.25
2018-02-15T12:44:35.295Z,2.25
2018-02-15T12:45:44.432Z,2.27
2018-02-15T12:46:53.516Z,2.24
2018-02-15T12:48:02.659Z,2.17
2018-02-15T12:49:11.799Z,2.12
2018-02-15T12:50:21.105Z,2.27
2018-02-15T12:51:30.200Z,2.27
2018-02-15T12:52:39.132Z,2.31
2018-02-15T12:54:18.258Z,2.25
2018-02-15T12:55:27.424Z,2.18
2018-02-15T12:56:36.571Z,2.28
2018-02-15T12:57:45.700Z,2.28
2018-02-15T12:58:54.590Z,2.3
2018-02-15T13:00:03.438Z,2.31
2018-02-15T13:01:12.557Z,2.27
2018-02-15T13:02:21.432Z,2.28
2018-02-15T13:03:30.529Z,2.28
2018-02-15T13:04:40.016Z,2.38
2018-02-15T13:05:52.360Z,2.28
2018-02-15T13:07:02.144Z,2.35
2018-02-15T13:08:11.266Z,2.41
2018-02-15T13:09:20.539Z,2.45
2018-02-15T13:10:29.991Z,2.35
2018-02-15T13:11:39.110Z,2.35
2018-02-15T13:12:48.152Z,2.36
2018-02-15T13:13:57.764Z,2.41
2018-02-15T13:15:08.092Z,2.45
2018-02-15T13:16:16.924Z,2.39
2018-02-15T13:17:25.761Z,2.49
2018-02-15T13:18:34.602Z,2.43
2018-02-15T13:19:43.497Z,2.48
2018-02-15T13:20:52.331Z,2.38
2018-02-15T13:22:01.461Z,2.38
2018-02-15T13:23:10.286Z,2.35
2018-02-15T13:24:19.113Z,2.36
2018-02-15T13:25:27.941Z,2.35
2018-02-15T13:26:36.765Z,2.41
2018-02-15T13:27:45.743Z,2.42
2018-02-15T13:28:54.569Z,2.45
2018-02-15T13:30:03.396Z,2.41
2018-02-15T13:31:12.227Z,2.43
2018-02-15T13:32:21.051Z,2.46
2018-02-15T13:33:29.878Z,2.43
2018-02-15T13:34:38.704Z,2.49
2018-02-15T13:35:47.535Z,2.48
2018-02-15T13:36:56.357Z,2.42
2018-02-15T13:38:05.182Z,2.34
2018-02-15T13:39:14.207Z,2.34
2018-02-15T13:40:23.037Z,2.35
2018-02-15T13:41:32.143Z,2.38
2018-02-15T13:42:40.966Z,2.45
2018-02-15T13:43:49.793Z,2.54
2018-02-15T13:44:58.674Z,2.43
2018-02-15T13:46:07.509Z,2.41
2018-02-15T13:47:16.334Z,2.43
2018-02-15T13:48:25.261Z,2.45
2018-02-15T13:49:34.088Z,2.42
2018-02-15T13:50:42.913Z,2.56
2018-02-15T13:51:51.742Z,2.56
2018-02-15T13:53:00.570Z,2.52
2018-02-15T13:54:09.397Z,2.48
2018-02-15T13:55:18.231Z,2.53
2018-02-15T13:56:27.115Z,2.43
2018-02-15T13:57:35.939Z,2.54
2018-02-15T13:58:44.769Z,2.54
2018-02-15T13:59:53.874Z,2.59
2018-02-15T14:01:02.976Z,2.49
2018-02-15T14:02:11.802Z,2.52
2018-02-15T14:03:20.639Z,2.53
2018-02-15T14:04:29.469Z,2.46
2018-02-15T14:05:38.571Z,2.54
2018-02-15T14:06:47.399Z,2.56
2018-02-15T14:07:56.228Z,2.57
2018-02-15T14:09:05.059Z,2.64
2018-02-15T14:10:13.888Z,2.66
2018-02-15T14:11:22.714Z,2.57
2018-02-15T14:12:31.544Z,2.64
2018-02-15T14:13:40.370Z,2.59
2018-02-15T14:14:49.196Z,2.67
2018-02-15T14:15:58.029Z,2.67
2018-02-15T14:17:07.135Z,2.66
2018-02-15T14:18:15.965Z,2.61
2018-02-15T14:19:24.791Z,2.6
2018-02-15T14:20:33.894Z,2.61
2018-02-15T14:21:42.723Z,2.71
2018-02-15T14:22:51.551Z,2.61
2018-02-15T14:24:00.388Z,2.54
2018-02-15T14:25:09.240Z,2.56
2018-02-15T14:26:18.069Z,2.56
2018-02-15T14:27:26.900Z,2.6
2018-02-15T14:28:35.726Z,2.6
2018-02-15T14:29:44.826Z,2.78
2018-02-15T14:30:53.652Z,2.81
2018-02-15T14:32:02.481Z,2.75
2018-02-15T14:33:11.310Z,2.71
2018-02-15T14:34:20.145Z,2.69
2018-02-15T14:35:28.978Z,2.72
2018-02-15T14:36:37.805Z,2.64
2018-02-15T14:37:46.629Z,2.6
2018-02-15T14:38:55.606Z,2.69
2018-02-15T14:40:04.434Z,2.69
2018-02-15T14:41:13.261Z,2.74
2018-02-15T14:42:22.089Z,2.71
2018-02-15T14:43:31.189Z,2.81
2018-02-15T14:44:40.068Z,2.79
2018-02-15T14:45:48.896Z,2.74
2018-02-15T14:46:57.722Z,2.74
2018-02-15T14:48:06.552Z,2.75
2018-02-15T14:49:15.385Z,2.69
2018-02-15T14:50:24.380Z,2.77
2018-02-15T14:51:33.219Z,2.79
2018-02-15T14:52:42.330Z,2.75
2018-02-15T14:53:51.167Z,2.66
2018-02-15T14:55:00.013Z,2.6
2018-02-15T14:56:09.220Z,2.71
2018-02-15T14:57:18.049Z,2.6
2018-02-15T14:58:27.152Z,2.66
2018-02-15T14:59:35.977Z,2.66
2018-02-15T15:00:45.086Z,2.63
2018-02-15T15:01:53.912Z,2.82
2018-02-15T15:03:03.312Z,2.78
2018-02-15T15:04:12.139Z,2.81
2018-02-15T15:05:21.258Z,2.75
2018-02-15T15:06:30.097Z,2.77
2018-02-15T15:07:39.088Z,2.72
2018-02-15T15:08:47.920Z,2.77
2018-02-15T15:09:56.750Z,2.69
2018-02-15T15:11:05.576Z,2.6
2018-02-15T15:12:14.403Z,2.59
2018-02-15T15:13:23.380Z,2.61
2018-02-15T15:14:32.208Z,2.6
2018-02-15T15:15:41.035Z,2.66
2018-02-15T15:16:50.136Z,2.66
2018-02-15T15:17:59.235Z,2.66
2018-02-15T15:19:08.113Z,2.6
2018-02-15T15:20:16.940Z,2.67
2018-02-15T15:21:25.771Z,2.72
2018-02-15T15:22:34.598Z,2.63